Main page
METAR-TAF:

METAR-TAF

Airports :

Zagreb Airport

Zagreb, Croatia

latitude: 45-44N, longitude: 016-04E, elevation: 106 m

Current weather observation

The report was made 38 minutes ago, at 18:30 UTC
Wind 5 kt from the West/Southwest
Temperature 12°C
Humidity 76%
Pressure 1026 hPa
Visibility 10 km or more
no clouds below 1500 m and no cumulonimbus

METAR: LDZA 131830Z 24005KT CAVOK 12/08 Q1026 BECMG 05007KT

Time: 20:08 (19:08 UTC)

Forecast

The report was made 1 hour and 43 minutes ago, at 17:25 UTC
Forecast valid from 13 at 18 UTC to 14 at 18 UTC
Wind 6 kt from the Northwest
Visibility 10 km or more
no clouds below 1500 m and no cumulonimbus
Becoming
from 13 at 18 UTC to 13 at 20 UTC
Wind 8 kt from the Northeast
Becoming
from 14 at 00 UTC to 14 at 02 UTC
Wind 2 kt from variable directions
Probability 30%
from 14 at 03 UTC to 14 at 07 UTC
Visibility: 3000 m
Shallow fog

TAF: LDZA 131725Z 1318/1418 31006KT CAVOK TX14/1412Z TN07/1405Z BECMG 1318/1320 05008KT BECMG 1400/1402 VRB02KT PROB30 1403/1407 3000 MIFG

Weather observations and forecasts of more than 4000 airports (METAR and TAF reports).

The available stations are represented by yellow and red dots on the map.

Hover mouse over dot to see the name of the station.

Then click to see weather observations and forecasts.

To change the map : click on the green buttons with a black cross to zoom in, on the green button with a dash to zoom out, or on the green arrows for adjacent maps.


METAR-TAF: